createdAt,value
2018-04-15T00:00:15.906Z,67.66
2018-04-15T00:02:42.250Z,68.42
2018-04-15T00:05:08.592Z,66.90
2018-04-15T00:07:35.021Z,68.09
2018-04-15T00:10:01.387Z,67.44
2018-04-15T00:12:27.888Z,66.75
2018-04-15T00:14:54.218Z,69.76
2018-04-15T00:17:20.590Z,66.27
2018-04-15T00:19:46.938Z,66.20
2018-04-15T00:22:13.277Z,65.72
2018-04-15T00:24:39.605Z,66.99
2018-04-15T00:27:05.938Z,68.16
2018-04-15T00:29:32.282Z,68.55
2018-04-15T00:31:58.638Z,67.88
2018-04-15T00:34:25.006Z,67.71
2018-04-15T00:36:51.339Z,68.52
2018-04-15T00:39:17.685Z,67.97
2018-04-15T00:41:44.024Z,66.72
2018-04-15T00:44:10.365Z,67.72
2018-04-15T00:46:36.697Z,68.45
2018-04-15T00:49:03.065Z,68.08
2018-04-15T00:51:29.372Z,67.92
2018-04-15T00:54:07.878Z,67.23
2018-04-15T00:56:34.197Z,67.07
2018-04-15T00:59:00.541Z,67.19
2018-04-15T01:01:26.885Z,68.00
2018-04-15T01:03:53.229Z,67.86
2018-04-15T01:06:19.581Z,68.08
2018-04-15T01:08:45.946Z,67.59
2018-04-15T01:11:12.309Z,67.07
2018-04-15T01:13:38.694Z,68.25
2018-04-15T01:16:05.091Z,69.42
2018-04-15T01:18:31.524Z,69.71
2018-04-15T01:20:57.958Z,69.00
2018-04-15T01:23:24.317Z,67.95
2018-04-15T01:25:50.681Z,68.03
2018-04-15T01:28:17.025Z,67.20
2018-04-15T01:30:43.386Z,66.72
2018-04-15T01:33:09.817Z,66.48
2018-04-15T01:35:36.170Z,68.44
2018-04-15T01:38:02.518Z,69.48
2018-04-15T01:40:28.861Z,66.80
2018-04-15T01:42:55.206Z,67.77
2018-04-15T01:45:21.558Z,68.88
2018-04-15T01:47:47.982Z,70.27
2018-04-15T01:50:14.350Z,68.92
2018-04-15T01:52:40.696Z,68.68
2018-04-15T01:55:07.038Z,67.70
2018-04-15T01:57:33.418Z,68.94
2018-04-15T01:59:59.764Z,68.88
2018-04-15T02:02:26.198Z,68.82
2018-04-15T02:04:52.568Z,69.87
2018-04-15T02:07:18.889Z,68.63
2018-04-15T02:09:45.278Z,67.82
2018-04-15T02:12:11.613Z,66.62
2018-04-15T02:14:37.955Z,66.70
2018-04-15T02:17:04.288Z,67.45
2018-04-15T02:19:30.622Z,67.76
2018-04-15T02:21:56.949Z,68.50
2018-04-15T02:24:23.281Z,67.48
2018-04-15T02:26:49.617Z,66.54
2018-04-15T02:29:15.946Z,68.07
2018-04-15T02:31:42.377Z,67.95
2018-04-15T02:34:08.722Z,68.22
2018-04-15T02:36:35.102Z,68.32
2018-04-15T02:39:01.523Z,69.33
2018-04-15T02:41:27.930Z,68.65
2018-04-15T02:43:54.311Z,68.60
2018-04-15T02:46:20.654Z,68.38
2018-04-15T02:48:47.001Z,69.62
2018-04-15T02:51:13.354Z,70.43
2018-04-15T02:53:39.718Z,70.08
2018-04-15T02:56:06.091Z,70.32
2018-04-15T02:58:32.428Z,70.63
2018-04-15T03:00:58.767Z,68.98
2018-04-15T03:03:25.108Z,69.26
2018-04-15T03:05:51.450Z,68.89
2018-04-15T03:08:17.786Z,68.66
2018-04-15T03:10:44.287Z,67.80
2018-04-15T03:13:10.617Z,68.03
2018-04-15T03:15:36.950Z,68.88
2018-04-15T03:18:03.297Z,69.92
2018-04-15T03:20:29.689Z,70.63
2018-04-15T03:22:56.099Z,69.57
2018-04-15T03:25:22.477Z,69.35
2018-04-15T03:27:48.840Z,70.29
2018-04-15T03:30:15.187Z,70.56
2018-04-15T03:32:41.541Z,70.99
2018-04-15T03:35:08.007Z,70.49
2018-04-15T03:37:34.367Z,71.12
2018-04-15T03:40:00.706Z,70.23
2018-04-15T03:42:27.057Z,69.97
2018-04-15T03:44:53.410Z,70.10
2018-04-15T03:47:19.766Z,70.65
2018-04-15T03:49:46.114Z,71.67
2018-04-15T03:52:12.458Z,72.77
2018-04-15T03:54:38.797Z,73.51
2018-04-15T03:57:05.130Z,71.39
2018-04-15T03:59:31.510Z,71.54
2018-04-15T04:01:57.869Z,72.46
2018-04-15T04:04:24.246Z,72.81
2018-04-15T04:06:50.603Z,71.26
2018-04-15T04:09:16.952Z,70.15
2018-04-15T04:11:43.279Z,70.26
2018-04-15T04:14:09.625Z,70.69
2018-04-15T04:16:35.966Z,70.29
2018-04-15T04:19:14.433Z,69.17
2018-04-15T04:21:52.873Z,68.81
2018-04-15T04:24:31.315Z,69.88
2018-04-15T04:27:00.154Z,70.01
2018-04-15T04:29:26.485Z,70.57
2018-04-15T04:31:52.845Z,70.07
2018-04-15T04:34:19.210Z,71.12
2018-04-15T04:36:45.557Z,68.58
2018-04-15T04:39:11.915Z,69.62
2018-04-15T04:41:38.273Z,69.36
2018-04-15T04:44:04.597Z,71.38
2018-04-15T04:46:30.955Z,69.25
2018-04-15T04:48:57.311Z,69.34
2018-04-15T04:51:23.665Z,69.38
2018-04-15T04:53:50.002Z,70.15
2018-04-15T04:56:16.354Z,69.86
2018-04-15T04:58:42.689Z,69.76
2018-04-15T05:01:09.035Z,70.26
2018-04-15T05:03:35.374Z,70.45
2018-04-15T05:06:01.694Z,70.35
2018-04-15T05:08:28.047Z,70.95
2018-04-15T05:10:54.395Z,70.86
2018-04-15T05:13:20.880Z,71.26
2018-04-15T05:15:47.225Z,70.15
2018-04-15T05:18:13.610Z,70.78
2018-04-15T05:20:39.945Z,70.20
2018-04-15T05:23:06.265Z,69.81
2018-04-15T05:25:32.622Z,69.48
2018-04-15T05:27:58.991Z,71.02
2018-04-15T05:30:25.653Z,71.85
2018-04-15T05:32:51.967Z,72.61
2018-04-15T05:35:18.313Z,72.01
2018-04-15T05:37:44.629Z,71.76
2018-04-15T05:40:10.998Z,71.77
2018-04-15T05:42:37.318Z,72.62
2018-04-15T05:45:03.687Z,71.14
2018-04-15T05:47:29.990Z,70.88
2018-04-15T05:49:56.322Z,71.05
2018-04-15T05:52:22.653Z,70.47
2018-04-15T05:54:48.969Z,70.30
2018-04-15T05:57:15.296Z,71.13
2018-04-15T05:59:41.798Z,71.91
2018-04-15T06:02:08.138Z,73.25
2018-04-15T06:04:34.471Z,72.94
2018-04-15T06:07:00.835Z,73.37
2018-04-15T06:09:27.186Z,73.42
2018-04-15T06:11:53.489Z,74.41
2018-04-15T06:14:19.800Z,73.20
2018-04-15T06:16:46.121Z,71.93
2018-04-15T06:19:12.454Z,72.31
2018-04-15T06:21:39.349Z,72.53
2018-04-15T06:24:05.809Z,70.22
2018-04-15T06:26:32.165Z,70.02
2018-04-15T06:28:58.486Z,71.26
2018-04-15T06:31:24.818Z,70.71
2018-04-15T06:33:51.171Z,70.93
2018-04-15T06:36:17.494Z,69.99
2018-04-15T06:38:43.829Z,70.68
2018-04-15T06:41:10.145Z,72.90
2018-04-15T06:43:36.468Z,70.68
2018-04-15T06:46:02.892Z,70.37
2018-04-15T06:48:29.216Z,68.70
2018-04-15T06:50:55.551Z,69.29
2018-04-15T06:53:21.853Z,69.22
2018-04-15T06:55:48.232Z,70.24
2018-04-15T06:58:14.544Z,71.27
2018-04-15T07:00:40.910Z,69.75
2018-04-15T07:03:07.366Z,69.87
2018-04-15T07:05:33.709Z,68.85
2018-04-15T07:08:00.038Z,68.00
2018-04-15T07:10:26.366Z,68.60
2018-04-15T07:12:53.002Z,70.86
2018-04-15T07:15:19.395Z,68.15
2018-04-15T07:17:45.726Z,68.94
2018-04-15T07:20:12.049Z,69.64
2018-04-15T07:22:38.369Z,71.22
2018-04-15T07:25:04.734Z,71.86
2018-04-15T07:27:31.198Z,69.40
2018-04-15T07:29:57.582Z,67.84
2018-04-15T07:32:23.914Z,68.50
2018-04-15T07:34:50.238Z,67.93
2018-04-15T07:37:16.562Z,67.88
2018-04-15T07:39:43.471Z,67.24
2018-04-15T07:42:09.867Z,68.05
2018-04-15T07:44:36.191Z,68.98
2018-04-15T07:47:02.592Z,69.60
2018-04-15T07:49:28.902Z,69.85
2018-04-15T07:51:55.236Z,72.51
2018-04-15T07:54:21.594Z,71.39
2018-04-15T07:56:47.931Z,70.50
2018-04-15T07:59:19.092Z,68.69
2018-04-15T08:01:47.036Z,70.20
2018-04-15T08:04:13.514Z,71.47
2018-04-15T08:06:39.853Z,67.50
2018-04-15T08:09:06.294Z,67.72
2018-04-15T08:11:32.699Z,67.95
2018-04-15T08:13:59.078Z,68.29
2018-04-15T08:16:25.690Z,67.22
2018-04-15T08:18:52.034Z,66.24
2018-04-15T08:21:18.386Z,64.57
2018-04-15T08:23:44.754Z,65.69
2018-04-15T08:26:11.086Z,63.94
2018-04-15T08:28:37.626Z,63.54
2018-04-15T08:31:04.007Z,63.31
2018-04-15T08:33:30.322Z,64.70
2018-04-15T08:35:56.669Z,63.24
2018-04-15T08:38:22.998Z,61.30
2018-04-15T08:40:49.317Z,60.24
2018-04-15T08:43:15.727Z,63.25
2018-04-15T08:45:42.044Z,62.09
2018-04-15T08:48:08.374Z,63.26
2018-04-15T08:50:34.715Z,60.70
2018-04-15T08:53:01.050Z,60.90
2018-04-15T08:55:27.382Z,59.43
2018-04-15T08:57:53.709Z,62.48
2018-04-15T09:00:20.106Z,64.02
2018-04-15T09:02:46.421Z,60.35
2018-04-15T09:05:12.763Z,63.83
2018-04-15T09:07:39.073Z,62.32
2018-04-15T09:10:05.390Z,61.02
2018-04-15T09:12:31.733Z,61.70
2018-04-15T09:14:58.045Z,60.88
2018-04-15T09:17:24.350Z,59.75
2018-04-15T09:19:50.689Z,61.71
2018-04-15T09:22:17.251Z,58.80
2018-04-15T09:24:43.762Z,63.35
2018-04-15T09:27:10.136Z,58.50
2018-04-15T09:29:36.539Z,60.87
2018-04-15T09:32:02.870Z,57.70
2018-04-15T09:34:29.187Z,58.53
2018-04-15T09:36:55.506Z,60.38
2018-04-15T09:39:21.841Z,56.87
2018-04-15T09:41:48.162Z,62.04
2018-04-15T09:44:14.681Z,57.72
2018-04-15T09:46:40.994Z,57.84
2018-04-15T09:49:07.317Z,60.78
2018-04-15T09:51:33.625Z,56.72
2018-04-15T09:53:59.936Z,57.01
2018-04-15T09:56:26.261Z,59.63
2018-04-15T09:58:52.573Z,59.48
2018-04-15T10:01:18.926Z,61.29
2018-04-15T10:03:45.246Z,60.10
2018-04-15T10:06:11.667Z,58.07
2018-04-15T10:08:38.061Z,56.52
2018-04-15T10:11:04.385Z,59.39
2018-04-15T10:13:30.730Z,56.04
2018-04-15T10:15:57.050Z,56.99
2018-04-15T10:18:23.413Z,54.57
2018-04-15T10:20:49.769Z,54.17
2018-04-15T10:23:16.095Z,58.11
2018-04-15T10:25:42.514Z,57.30
2018-04-15T10:28:08.840Z,58.29
2018-04-15T10:30:35.251Z,57.25
2018-04-15T10:33:01.801Z,58.30
2018-04-15T10:35:28.103Z,56.56
2018-04-15T10:37:54.430Z,51.57
2018-04-15T10:40:20.753Z,53.83
2018-04-15T10:42:47.082Z,53.61
2018-04-15T10:45:13.402Z,55.20
2018-04-15T10:47:39.741Z,50.37
2018-04-15T10:50:06.074Z,50.11
2018-04-15T10:52:32.398Z,52.06
2018-04-15T10:54:58.714Z,50.71
2018-04-15T10:57:25.039Z,54.89
2018-04-15T10:59:51.469Z,55.58
2018-04-15T11:02:17.760Z,50.65
2018-04-15T11:04:44.097Z,51.35
2018-04-15T11:07:10.420Z,53.53
2018-04-15T11:09:36.750Z,53.30
2018-04-15T11:12:03.103Z,51.23
2018-04-15T11:14:29.644Z,55.26
2018-04-15T11:16:55.994Z,51.98
2018-04-15T11:19:22.511Z,51.13
2018-04-15T11:21:48.870Z,50.51
2018-04-15T11:24:15.214Z,54.23
2018-04-15T11:26:41.529Z,51.66
2018-04-15T11:29:07.859Z,51.19
2018-04-15T11:31:34.202Z,49.97
2018-04-15T11:34:00.600Z,50.62
2018-04-15T11:36:26.930Z,55.90
2018-04-15T11:38:53.289Z,51.12
2018-04-15T11:41:19.638Z,50.75
2018-04-15T11:43:45.957Z,50.33
2018-04-15T11:46:12.282Z,50.50
2018-04-15T11:48:38.601Z,51.70
2018-04-15T11:51:04.942Z,55.18
2018-04-15T11:53:31.266Z,51.09
2018-04-15T11:55:57.681Z,55.87
2018-04-15T11:58:24.011Z,56.76
2018-04-15T12:00:50.348Z,54.64
2018-04-15T12:03:16.693Z,50.24
2018-04-15T12:05:43.033Z,50.73
2018-04-15T12:08:09.441Z,50.60
2018-04-15T12:10:35.764Z,52.03
2018-04-15T12:13:02.130Z,50.62
2018-04-15T12:15:28.533Z,49.87
2018-04-15T12:17:54.973Z,51.88
2018-04-15T12:20:21.310Z,52.61
2018-04-15T12:22:47.660Z,49.89
2018-04-15T12:25:14.018Z,51.11
2018-04-15T12:27:40.377Z,50.04
2018-04-15T12:30:06.766Z,50.63
2018-04-15T12:32:33.210Z,54.45
2018-04-15T12:34:59.696Z,56.14
2018-04-15T12:37:26.006Z,48.01
2018-04-15T12:39:52.333Z,54.46
2018-04-15T12:42:18.834Z,50.17
2018-04-15T12:44:45.156Z,52.55
2018-04-15T12:47:11.482Z,51.55
2018-04-15T12:49:37.805Z,52.91
2018-04-15T12:52:04.216Z,53.59
2018-04-15T12:54:30.525Z,47.32
2018-04-15T12:56:56.846Z,47.35
2018-04-15T12:59:23.173Z,45.95
2018-04-15T13:01:49.519Z,46.65
2018-04-15T13:04:15.875Z,47.51
2018-04-15T13:06:42.199Z,49.18
2018-04-15T13:09:08.567Z,52.24
2018-04-15T13:11:34.889Z,48.90
2018-04-15T13:14:01.221Z,52.87
2018-04-15T13:16:27.542Z,50.38
2018-04-15T13:18:53.881Z,50.54
2018-04-15T13:21:20.258Z,53.65
2018-04-15T13:23:46.828Z,53.33
2018-04-15T13:26:13.176Z,46.62
2018-04-15T13:28:39.544Z,46.36
2018-04-15T13:31:05.875Z,41.48
2018-04-15T13:33:32.229Z,49.27
2018-04-15T13:35:58.570Z,40.62
2018-04-15T13:38:24.919Z,40.33
2018-04-15T13:40:51.247Z,42.16
2018-04-15T13:43:17.513Z,40.76
2018-04-15T13:45:43.869Z,47.81
2018-04-15T13:48:10.257Z,45.81
2018-04-15T13:50:36.594Z,47.04
2018-04-15T13:53:02.926Z,39.53
2018-04-15T13:55:29.201Z,47.66
2018-04-15T13:57:55.540Z,43.91
2018-04-15T14:00:22.378Z,46.37
2018-04-15T14:02:49.531Z,48.17
2018-04-15T14:05:15.986Z,42.02
2018-04-15T14:07:42.329Z,49.81
2018-04-15T14:10:08.653Z,47.50
2018-04-15T14:12:34.990Z,46.98
2018-04-15T14:15:01.486Z,41.36
2018-04-15T14:17:27.755Z,41.39
2018-04-15T14:19:54.302Z,49.36
2018-04-15T14:22:20.681Z,43.13
2018-04-15T14:24:47.241Z,49.23
2018-04-15T14:27:13.623Z,49.47
2018-04-15T14:29:40.082Z,48.19
2018-04-15T14:32:06.409Z,41.20
2018-04-15T14:34:32.741Z,49.70
2018-04-15T14:36:59.078Z,42.56
2018-04-15T14:39:25.418Z,48.74
2018-04-15T14:41:51.758Z,41.22
2018-04-15T14:44:18.106Z,40.18
2018-04-15T14:46:44.422Z,42.36
2018-04-15T14:49:10.759Z,47.34
2018-04-15T14:51:37.099Z,49.54
2018-04-15T14:54:03.370Z,46.94
2018-04-15T14:56:30.176Z,41.94
2018-04-15T14:58:56.479Z,46.90
2018-04-15T15:01:22.802Z,42.82
2018-04-15T15:03:49.057Z,49.93
2018-04-15T15:06:15.389Z,43.08
2018-04-15T15:08:41.737Z,43.89
2018-04-15T15:11:08.089Z,43.49
2018-04-15T15:13:34.555Z,45.67
2018-04-15T15:16:00.851Z,44.86
2018-04-15T15:18:27.134Z,45.30
2018-04-15T15:20:53.410Z,44.41
2018-04-15T15:23:19.690Z,49.66
2018-04-15T15:25:45.990Z,45.28
2018-04-15T15:28:12.331Z,45.73
2018-04-15T15:30:38.600Z,47.06
2018-04-15T15:33:04.890Z,47.62
2018-04-15T15:35:31.178Z,44.77
2018-04-15T15:37:57.653Z,44.31
2018-04-15T15:40:23.984Z,52.53
2018-04-15T15:42:50.359Z,51.35
2018-04-15T15:45:17.505Z,43.68
2018-04-15T15:47:44.740Z,48.74
2018-04-15T15:50:11.058Z,47.17
2018-04-15T15:52:37.368Z,44.29
2018-04-15T15:55:03.641Z,44.41
2018-04-15T15:57:29.925Z,44.81
2018-04-15T15:59:56.373Z,48.02
2018-04-15T16:02:22.634Z,47.71
2018-04-15T16:04:48.899Z,45.30
2018-04-15T16:07:15.186Z,50.87
2018-04-15T16:09:41.450Z,46.18
2018-04-15T16:12:07.739Z,45.90
2018-04-15T16:14:34.021Z,45.46
2018-04-15T16:17:00.292Z,50.10
2018-04-15T16:19:26.542Z,45.90
2018-04-15T16:21:52.802Z,45.88
2018-04-15T16:24:19.105Z,45.82
2018-04-15T16:26:45.388Z,46.02
2018-04-15T16:29:11.679Z,46.30
2018-04-15T16:31:37.952Z,46.71
2018-04-15T16:34:04.282Z,47.28
2018-04-15T16:36:30.732Z,47.44
2018-04-15T16:38:57.105Z,47.16
2018-04-15T16:41:23.455Z,47.65
2018-04-15T16:43:49.742Z,47.81
2018-04-15T16:46:16.055Z,48.08
2018-04-15T16:48:42.334Z,48.51
2018-04-15T16:51:08.651Z,49.00
2018-04-15T16:53:34.941Z,49.46
2018-04-15T16:56:01.226Z,50.05
2018-04-15T16:58:27.760Z,49.53
2018-04-15T17:00:54.046Z,49.78
2018-04-15T17:03:20.330Z,49.84
2018-04-15T17:05:46.617Z,50.64
2018-04-15T17:08:13.019Z,49.25
2018-04-15T17:10:39.301Z,48.83
2018-04-15T17:13:05.732Z,48.75
2018-04-15T17:15:32.141Z,48.31
2018-04-15T17:17:58.429Z,48.01
2018-04-15T17:20:24.871Z,48.89
2018-04-15T17:22:51.178Z,49.95
2018-04-15T17:25:17.985Z,48.03
2018-04-15T17:27:44.320Z,47.12
2018-04-15T17:30:11.013Z,47.43
2018-04-15T17:32:37.369Z,47.15
2018-04-15T17:35:03.910Z,47.62
2018-04-15T17:37:30.185Z,48.90
2018-04-15T17:39:56.705Z,48.49
2018-04-15T17:42:23.001Z,49.71
2018-04-15T17:44:49.285Z,46.64
2018-04-15T17:47:15.578Z,46.19
2018-04-15T17:49:41.891Z,46.06
2018-04-15T17:52:08.210Z,49.57
2018-04-15T17:54:34.485Z,48.85
2018-04-15T17:57:00.770Z,47.41
2018-04-15T17:59:27.121Z,48.89
2018-04-15T18:01:53.480Z,44.79
2018-04-15T18:04:19.770Z,48.35
2018-04-15T18:06:46.254Z,49.05
2018-04-15T18:09:12.613Z,47.76
2018-04-15T18:11:39.010Z,44.99
2018-04-15T18:14:05.378Z,48.83
2018-04-15T18:16:32.490Z,43.45
2018-04-15T18:18:58.927Z,47.81
2018-04-15T18:21:25.226Z,47.14
2018-04-15T18:23:51.510Z,43.21
2018-04-15T18:26:17.800Z,48.79
2018-04-15T18:28:44.149Z,42.36
2018-04-15T18:31:10.476Z,49.69
2018-04-15T18:33:36.749Z,42.17
2018-04-15T18:36:03.345Z,49.34
2018-04-15T18:38:29.650Z,43.50
2018-04-15T18:40:56.006Z,42.04
2018-04-15T18:43:22.343Z,41.60
2018-04-15T18:45:48.637Z,43.59
2018-04-15T18:48:14.930Z,48.70
2018-04-15T18:50:41.300Z,50.47
2018-04-15T18:53:07.574Z,46.30
2018-04-15T18:55:33.939Z,52.35
2018-04-15T18:58:00.386Z,48.45
2018-04-15T19:00:26.681Z,43.13
2018-04-15T19:02:53.138Z,46.36
2018-04-15T19:05:19.449Z,44.48
2018-04-15T19:07:45.753Z,44.45
2018-04-15T19:10:12.057Z,43.04
2018-04-15T19:12:38.874Z,41.94
2018-04-15T19:15:05.170Z,46.87
2018-04-15T19:17:31.454Z,50.94
2018-04-15T19:19:57.761Z,45.62
2018-04-15T19:22:24.148Z,51.33
2018-04-15T19:24:50.432Z,48.05
2018-04-15T19:27:16.723Z,48.28
2018-04-15T19:29:43.158Z,50.66
2018-04-15T19:32:09.498Z,53.42
2018-04-15T19:34:35.853Z,44.07
2018-04-15T19:37:02.133Z,43.01
2018-04-15T19:39:28.417Z,40.75
2018-04-15T19:41:54.845Z,45.06
2018-04-15T19:44:21.174Z,40.59
2018-04-15T19:46:47.522Z,40.57
2018-04-15T19:49:13.806Z,40.05
2018-04-15T19:51:40.149Z,46.08
2018-04-15T19:54:06.531Z,51.85
2018-04-15T19:56:32.884Z,48.79
2018-04-15T19:58:59.149Z,46.59
2018-04-15T20:01:25.434Z,53.23
2018-04-15T20:03:51.710Z,42.62
2018-04-15T20:06:18.002Z,40.24
2018-04-15T20:08:44.279Z,38.70
2018-04-15T20:11:10.638Z,40.52
2018-04-15T20:13:36.875Z,40.99
2018-04-15T20:16:03.255Z,41.62
2018-04-15T20:18:29.596Z,53.66
2018-04-15T20:20:55.933Z,40.58
2018-04-15T20:23:22.246Z,42.62
2018-04-15T20:25:48.549Z,39.69
2018-04-15T20:28:14.847Z,47.62
2018-04-15T20:30:41.134Z,39.49
2018-04-15T20:33:07.407Z,38.18
2018-04-15T20:35:33.693Z,38.01
2018-04-15T20:37:59.972Z,37.15
2018-04-15T20:40:26.266Z,43.46
2018-04-15T20:42:52.535Z,37.26
2018-04-15T20:45:18.906Z,42.94
2018-04-15T20:47:45.194Z,38.16
2018-04-15T20:50:11.486Z,38.13
2018-04-15T20:52:37.766Z,39.82
2018-04-15T20:55:04.060Z,47.94
2018-04-15T20:57:30.339Z,36.36
2018-04-15T20:59:56.666Z,35.29
2018-04-15T21:02:22.952Z,38.65
2018-04-15T21:04:49.261Z,44.02
2018-04-15T21:07:15.597Z,35.33
2018-04-15T21:09:41.999Z,34.31
2018-04-15T21:12:08.481Z,33.28
2018-04-15T21:14:34.791Z,39.82
2018-04-15T21:17:01.074Z,34.57
2018-04-15T21:19:27.369Z,32.89
2018-04-15T21:21:53.675Z,36.66
2018-04-15T21:24:19.954Z,34.60
2018-04-15T21:26:46.266Z,34.14
2018-04-15T21:29:12.600Z,33.11
2018-04-15T21:31:38.914Z,35.46
2018-04-15T21:34:05.207Z,33.68
2018-04-15T21:36:31.539Z,38.69
2018-04-15T21:38:57.882Z,41.63
2018-04-15T21:41:24.198Z,39.48
2018-04-15T21:43:50.482Z,36.69
2018-04-15T21:46:16.745Z,49.85
2018-04-15T21:48:43.087Z,36.11
2018-04-15T21:51:09.367Z,45.02
2018-04-15T21:53:35.682Z,43.18
2018-04-15T21:56:01.968Z,36.62
2018-04-15T21:58:28.281Z,38.20
2018-04-15T22:00:54.710Z,36.13
2018-04-15T22:03:20.989Z,41.19
2018-04-15T22:05:47.330Z,41.66
2018-04-15T22:08:13.606Z,37.26
2018-04-15T22:10:39.903Z,36.18
2018-04-15T22:13:07.146Z,38.33
2018-04-15T22:15:33.430Z,36.34
2018-04-15T22:17:59.737Z,47.79
2018-04-15T22:20:26.029Z,45.60
2018-04-15T22:22:52.308Z,37.82
2018-04-15T22:25:18.590Z,47.93
2018-04-15T22:27:44.934Z,46.74
2018-04-15T22:30:11.235Z,39.64
2018-04-15T22:32:37.502Z,38.67
2018-04-15T22:35:03.853Z,38.07
2018-04-15T22:37:30.182Z,38.45
2018-04-15T22:39:56.459Z,41.25
2018-04-15T22:42:22.736Z,50.03
2018-04-15T22:44:49.022Z,39.02
2018-04-15T22:47:15.313Z,39.21
2018-04-15T22:49:42.420Z,41.17
2018-04-15T22:52:08.718Z,42.01
2018-04-15T22:54:34.999Z,41.50
2018-04-15T22:57:07.409Z,42.87
2018-04-15T22:59:33.690Z,45.24
2018-04-15T23:01:59.986Z,43.79
2018-04-15T23:04:26.354Z,39.82
2018-04-15T23:06:52.726Z,39.89
2018-04-15T23:09:19.061Z,39.91
2018-04-15T23:11:45.486Z,45.05
2018-04-15T23:14:11.843Z,42.90
2018-04-15T23:16:38.243Z,39.93
2018-04-15T23:19:04.579Z,51.21
2018-04-15T23:21:30.918Z,41.86
2018-04-15T23:23:57.251Z,44.41
2018-04-15T23:26:23.599Z,40.58
2018-04-15T23:28:49.971Z,39.59
2018-04-15T23:31:16.309Z,39.49
2018-04-15T23:33:42.654Z,41.50
2018-04-15T23:36:09.062Z,43.08
2018-04-15T23:38:35.410Z,46.39
2018-04-15T23:41:01.894Z,41.90
2018-04-15T23:43:28.223Z,42.45
2018-04-15T23:45:54.590Z,40.48
2018-04-15T23:48:20.939Z,47.09
2018-04-15T23:50:47.298Z,41.62
2018-04-15T23:53:13.654Z,40.39
2018-04-15T23:55:40.015Z,41.09
2018-04-15T23:58:06.365Z,40.12
